»·PEaware :: N355D KFUL-KSMX

N355D :: KFUL-KSMX

FLIGHT INFORMATION

Flight Status: Arrived
Operator: Privately registered:
United States
More flights under this callsign
Pilot: Anthony R. (23177)
Aircraft: CESSNA 172 SKYHAWK
(C172)
More flights by this aircraft type
Origin: KFUL Fullerton Mun
United States
Destination: KSMX Santa Maria Pub/Capt Hancock
United States
More flights between these airports :: More routes between these airports
Route: ANAHM1 VTU RZS KOAKS
File this flight plan on PilotEdge
Remarks:
Altitude:
(Current/Filed)
6,000ft
Speed:
(Current/Filed)
105kts
Departed: 27-Jan-19 10:41 AM
Arrived: 27-Jan-19 11:57 AM
Distance/Time
Traveled:
137nm/1:16
Distance/Time
To Go:
Arrived

Flight Plot

Page will automatically refresh every two minutes.

Flight plan parsing failed; only flown route is shown


Map Options




Map Legend


Flown Route
Filed Route
Departure Airport
Arrival Airport
Navaid (VOR, NDB)
Fix

Horizontal Profiles

Position Reports

Time Latitude Longitude Heading Altitude Ground
Speed
27-Jan-19 10:26 33.871161 -117.978184 258 93ft 0kts
27-Jan-19 10:27 33.871161 -117.978184 258 93ft 0kts
27-Jan-19 10:28 33.871161 -117.978184 258 93ft 0kts
27-Jan-19 10:29 33.871161 -117.978184 258 93ft 0kts
27-Jan-19 10:30 33.871161 -117.978184 258 93ft 0kts
27-Jan-19 10:31 33.871161 -117.978184 258 93ft 0kts
27-Jan-19 10:32 33.871161 -117.978184 258 93ft 0kts
27-Jan-19 10:33 33.871161 -117.978184 258 93ft 0kts
27-Jan-19 10:34 33.871161 -117.978184 258 93ft 0kts
27-Jan-19 10:35 33.871161 -117.978184 258 93ft 0kts
27-Jan-19 10:36 33.871753 -117.978499 36 92ft 10kts
27-Jan-19 10:37 33.872516 -117.975038 76 96ft 4kts
27-Jan-19 10:38 33.872542 -117.974926 65 96ft 0kts
27-Jan-19 10:39 33.872946 -117.975059 261 96ft 0kts
27-Jan-19 10:40 33.868522 -117.995000 249 582ft 77kts
27-Jan-19 10:41 33.853453 -117.989342 128 1342ft 83kts
27-Jan-19 10:42 33.838320 -117.966838 123 2079ft 92kts
27-Jan-19 10:43 33.824132 -117.969679 251 2923ft 85kts
27-Jan-19 10:44 33.816995 -117.996485 255 3751ft 83kts
27-Jan-19 10:45 33.809152 -118.023249 253 4527ft 86kts
27-Jan-19 10:46 33.804890 -118.052713 298 5093ft 105kts
27-Jan-19 10:47 33.819303 -118.086576 297 5081ft 115kts
27-Jan-19 10:48 33.834658 -118.120800 295 4983ft 114kts
27-Jan-19 10:49 33.847838 -118.153601 296 5409ft 103kts
27-Jan-19 10:50 33.859618 -118.183696 292 6021ft 107kts
27-Jan-19 10:51 33.872658 -118.220478 296 5935ft 129kts
27-Jan-19 10:52 33.886516 -118.259064 293 5988ft 122kts
27-Jan-19 10:53 33.903731 -118.295770 302 5996ft 125kts
27-Jan-19 10:54 33.922365 -118.331957 298 5941ft 132kts
27-Jan-19 10:55 33.939325 -118.369637 298 5990ft 128kts
27-Jan-19 10:56 33.935968 -118.410483 236 6027ft 117kts
27-Jan-19 10:57 33.939304 -118.450189 290 5902ft 129kts
27-Jan-19 10:58 33.951770 -118.489910 290 6011ft 126kts
27-Jan-19 10:59 33.964693 -118.529331 292 6050ft 128kts
27-Jan-19 11:00 33.977385 -118.569650 284 5990ft 130kts
27-Jan-19 11:01 33.990506 -118.609636 293 6018ft 128kts
27-Jan-19 11:02 34.004047 -118.649154 295 6028ft 126kts
27-Jan-19 11:03 34.009916 -118.675544 299 5801ft 135kts
27-Jan-19 11:04 34.024044 -118.714465 292 5814ft 130kts
27-Jan-19 11:05 34.035804 -118.755175 287 5837ft 126kts
27-Jan-19 11:06 34.047615 -118.795692 289 5808ft 130kts
27-Jan-19 11:07 34.058714 -118.837320 281 5795ft 124kts
27-Jan-19 11:08 34.069324 -118.878046 285 5775ft 128kts
27-Jan-19 11:09 34.080588 -118.918626 289 5792ft 128kts
27-Jan-19 11:10 34.092346 -118.959166 288 5812ft 127kts
27-Jan-19 11:11 34.103465 -118.999531 287 5829ft 127kts
27-Jan-19 11:12 34.113859 -119.040586 288 5838ft 128kts
27-Jan-19 11:13 34.130950 -119.078208 304 5841ft 128kts
27-Jan-19 11:14 34.151386 -119.113387 303 5858ft 128kts
27-Jan-19 11:15 34.170686 -119.149811 302 5833ft 129kts
27-Jan-19 11:16 34.190063 -119.186291 304 5821ft 129kts
27-Jan-19 11:17 34.210374 -119.222034 302 5818ft 128kts
27-Jan-19 11:18 34.230596 -119.257604 304 5805ft 129kts
27-Jan-19 11:19 34.250531 -119.293411 303 5815ft 128kts
27-Jan-19 11:20 34.269988 -119.329623 301 5817ft 128kts
27-Jan-19 11:21 34.289028 -119.366443 303 5797ft 128kts
27-Jan-19 11:22 34.308545 -119.402709 303 5785ft 129kts
27-Jan-19 11:23 34.328714 -119.438408 304 5787ft 128kts
27-Jan-19 11:24 34.349188 -119.473249 303 5785ft 129kts
27-Jan-19 11:25 34.370842 -119.507583 318 5798ft 128kts
27-Jan-19 11:26 34.388074 -119.545299 298 5798ft 127kts
27-Jan-19 11:27 34.407301 -119.581652 303 5804ft 128kts
27-Jan-19 11:28 34.426404 -119.618226 304 5817ft 128kts
27-Jan-19 11:29 34.446470 -119.654058 300 5810ft 128kts
27-Jan-19 11:30 34.465001 -119.691043 302 5820ft 128kts
27-Jan-19 11:32 34.484699 -119.726982 303 5832ft 128kts
27-Jan-19 11:33 34.505055 -119.762624 303 5841ft 128kts
27-Jan-19 11:34 34.524230 -119.799140 301 5839ft 129kts
27-Jan-19 11:35 34.541857 -119.836705 298 5852ft 128kts
27-Jan-19 11:36 34.561256 -119.872964 301 5865ft 129kts
27-Jan-19 11:37 34.579089 -119.910659 297 5853ft 128kts
27-Jan-19 11:38 34.595948 -119.949103 301 5833ft 129kts
27-Jan-19 11:39 34.613789 -119.986879 299 5830ft 128kts
27-Jan-19 11:40 34.631600 -120.024476 298 5822ft 128kts
27-Jan-19 11:41 34.649803 -120.062061 300 5816ft 129kts
27-Jan-19 11:42 34.668246 -120.099330 305 5812ft 128kts
27-Jan-19 11:43 34.680891 -120.139459 282 4925ft 127kts
27-Jan-19 11:44 34.688279 -120.180256 285 3936ft 117kts
27-Jan-19 11:45 34.696181 -120.217037 286 3756ft 106kts
27-Jan-19 11:46 34.704855 -120.251582 285 3782ft 107kts
27-Jan-19 11:47 34.712157 -120.286716 284 3832ft 107kts
27-Jan-19 11:48 34.720325 -120.321792 304 3801ft 109kts
27-Jan-19 11:49 34.744581 -120.343499 331 3062ft 103kts
27-Jan-19 11:50 34.768539 -120.359949 330 2384ft 93kts
27-Jan-19 11:50 34.789139 -120.374537 330 2239ft 110kts
27-Jan-19 11:52 34.820094 -120.396671 329 1976ft 104kts
27-Jan-19 11:53 34.845732 -120.413598 335 1331ft 99kts
27-Jan-19 11:54 34.866177 -120.422180 338 884ft 71kts
27-Jan-19 11:54 34.880561 -120.431609 321 560ft 71kts
27-Jan-19 11:55 34.893299 -120.446455 315 269ft 55kts
27-Jan-19 11:57 34.897919 -120.450271 0 265ft 0kts
27-Jan-19 11:58 34.898231 -120.449925 117 265ft 9kts
27-Jan-19 11:58 34.896953 -120.447364 43 265ft 8kts

Navigation Log

Ident Type
Flight plan parsing failed, navigation log unavailable